createdAt,value
2023-10-16T06:59:04.351Z,99.99
2023-10-16T07:00:05.426Z,99.99
2023-10-16T07:01:05.637Z,99.99
2023-10-16T07:02:05.569Z,99.99
2023-10-16T07:03:05.722Z,99.99
2023-10-16T07:04:05.899Z,99.99
2023-10-16T07:05:05.858Z,99.99
2023-10-16T07:06:05.937Z,99.99
2023-10-16T07:07:06.005Z,99.99
2023-10-16T07:08:06.077Z,99.99
2023-10-16T07:09:06.128Z,99.99
2023-10-16T07:10:06.239Z,99.99
2023-10-16T07:11:06.332Z,99.72
2023-10-16T07:12:06.335Z,99.82
2023-10-16T07:13:06.480Z,99.93
2023-10-16T07:14:06.533Z,99.99
2023-10-16T07:15:06.595Z,99.52
2023-10-16T07:16:06.764Z,99.21
2023-10-16T07:17:06.743Z,99.16
2023-10-16T07:18:06.915Z,98.69
2023-10-16T07:19:06.954Z,98.90
2023-10-16T07:20:06.985Z,99.21
2023-10-16T07:21:07.061Z,99.37
2023-10-16T07:22:07.151Z,99.47
2023-10-16T07:23:07.215Z,99.57
2023-10-16T07:24:07.270Z,98.85
2023-10-16T07:25:07.424Z,98.85
2023-10-16T07:26:07.466Z,98.02
2023-10-16T07:27:07.551Z,98.23
2023-10-16T07:28:07.636Z,98.54
2023-10-16T07:29:07.686Z,98.02
2023-10-16T07:30:07.807Z,98.08
2023-10-16T07:31:07.901Z,97.88
2023-10-16T07:32:07.905Z,98.19
2023-10-16T07:33:08.075Z,97.47
2023-10-16T07:34:08.124Z,97.52
2023-10-16T07:35:08.149Z,96.91
2023-10-16T07:36:08.235Z,95.98
2023-10-16T07:37:08.355Z,97.11
2023-10-16T07:38:08.365Z,97.17
2023-10-16T07:39:08.492Z,96.55
2023-10-16T07:40:08.540Z,96.55
2023-10-16T07:41:08.631Z,96.03
2023-10-16T07:42:08.692Z,96.24
2023-10-16T07:43:08.773Z,96.03
2023-10-16T07:44:08.884Z,96.96
2023-10-16T07:45:08.915Z,97.23
2023-10-16T07:46:09.055Z,96.30
2023-10-16T07:47:09.101Z,97.02
2023-10-16T07:48:09.220Z,97.23
2023-10-16T07:49:09.226Z,97.02
2023-10-16T07:50:09.264Z,96.50
2023-10-16T07:51:09.381Z,96.92
2023-10-16T07:52:09.456Z,96.96
2023-10-16T07:53:09.518Z,97.38
2023-10-16T07:54:09.597Z,97.89
2023-10-16T07:55:09.724Z,96.86
2023-10-16T07:56:09.814Z,97.48
2023-10-16T07:57:09.911Z,97.48
2023-10-16T07:58:10.036Z,98.20
2023-10-16T07:59:10.344Z,97.58
2023-10-16T08:00:10.127Z,98.05
2023-10-16T08:01:10.318Z,98.11
2023-10-16T08:02:10.311Z,96.56
2023-10-16T08:03:10.436Z,96.05
2023-10-16T08:04:10.550Z,96.52
2023-10-16T08:05:10.522Z,96.93
2023-10-16T08:06:10.661Z,96.83
2023-10-16T08:07:10.773Z,96.31
2023-10-16T08:08:10.796Z,95.80
2023-10-16T08:09:13.200Z,96.25
2023-10-16T08:10:10.973Z,96.67
2023-10-16T08:11:11.075Z,96.05
2023-10-16T08:12:11.236Z,95.84
2023-10-16T08:13:11.214Z,96.56
2023-10-16T08:14:11.274Z,96.77
2023-10-16T08:15:11.329Z,96.77
2023-10-16T08:16:11.506Z,96.36
2023-10-16T08:17:11.611Z,96.46
2023-10-16T08:18:11.815Z,96.67
2023-10-16T08:19:11.756Z,95.23
2023-10-16T08:20:11.734Z,95.12
2023-10-16T08:21:11.817Z,95.28
2023-10-16T08:22:11.985Z,94.11
2023-10-16T08:23:11.968Z,93.80
2023-10-16T08:24:14.106Z,93.18
2023-10-16T08:25:12.160Z,92.87
2023-10-16T08:26:12.183Z,93.90
2023-10-16T08:27:12.250Z,94.21
2023-10-16T08:28:12.310Z,93.84
2023-10-16T08:29:12.391Z,94.36
2023-10-16T08:30:12.457Z,95.08
2023-10-16T08:31:12.617Z,95.34
2023-10-16T08:32:12.650Z,95.14
2023-10-16T08:33:12.734Z,94.83
2023-10-16T08:34:12.825Z,94.15
2023-10-16T08:35:12.892Z,93.84
2023-10-16T08:36:12.959Z,94.83
2023-10-16T08:37:13.044Z,94.31
2023-10-16T08:38:13.111Z,93.90
2023-10-16T08:39:13.199Z,94.21
2023-10-16T08:40:13.286Z,93.90
2023-10-16T08:41:13.310Z,93.65
2023-10-16T08:42:13.394Z,93.61
2023-10-16T08:43:13.511Z,93.71
2023-10-16T08:44:13.570Z,92.44
2023-10-16T08:45:13.630Z,91.41
2023-10-16T08:46:13.788Z,90.73
2023-10-16T08:47:13.777Z,92.03
2023-10-16T08:48:13.900Z,90.69
2023-10-16T08:49:14.009Z,90.34
2023-10-16T08:50:14.047Z,89.21
2023-10-16T08:51:14.122Z,90.71
2023-10-16T08:52:14.217Z,89.50
2023-10-16T08:53:14.315Z,87.65
2023-10-16T08:54:14.427Z,87.34
2023-10-16T08:55:14.504Z,87.51
2023-10-16T08:56:14.588Z,86.77
2023-10-16T08:57:14.667Z,88.35
2023-10-16T08:58:14.741Z,89.72
2023-10-16T08:59:14.836Z,89.56
2023-10-16T09:00:14.959Z,90.42
2023-10-16T09:01:15.058Z,91.29
2023-10-16T09:02:15.060Z,91.97
2023-10-16T09:03:15.254Z,92.27
2023-10-16T09:04:17.967Z,91.55
2023-10-16T09:05:15.333Z,91.41
2023-10-16T09:06:15.402Z,91.72
2023-10-16T09:07:15.489Z,90.89
2023-10-16T09:08:15.555Z,92.13
2023-10-16T09:09:15.714Z,92.03
2023-10-16T09:10:15.766Z,91.82
2023-10-16T09:11:15.821Z,90.69
2023-10-16T09:12:15.882Z,91.20
2023-10-16T09:13:15.980Z,91.61
2023-10-16T09:14:16.046Z,91.61
2023-10-16T09:15:16.133Z,91.66
2023-10-16T09:16:16.236Z,92.54
2023-10-16T09:17:16.260Z,92.64
2023-10-16T09:18:16.351Z,91.31
2023-10-16T09:19:16.435Z,91.16
2023-10-16T09:20:16.544Z,90.65
2023-10-16T09:21:16.620Z,90.95
2023-10-16T09:22:16.713Z,90.65
2023-10-16T09:23:16.771Z,89.78
2023-10-16T09:24:16.882Z,89.21
2023-10-16T09:25:26.183Z,89.72
2023-10-16T09:26:17.083Z,90.85
2023-10-16T09:27:17.081Z,90.03
2023-10-16T09:28:17.168Z,90.34
2023-10-16T09:29:17.239Z,90.61
2023-10-16T09:30:17.442Z,90.05
2023-10-16T09:31:17.470Z,88.27
2023-10-16T09:32:17.594Z,87.76
2023-10-16T09:33:17.632Z,87.20
2023-10-16T09:34:17.635Z,87.37
2023-10-16T09:35:17.745Z,87.77
2023-10-16T09:36:17.801Z,86.58
2023-10-16T09:37:17.876Z,87.77
2023-10-16T09:38:17.976Z,87.06
2023-10-16T09:39:18.107Z,85.93
2023-10-16T09:40:24.348Z,86.96
2023-10-16T09:41:18.220Z,88.18
2023-10-16T09:42:18.301Z,86.96
2023-10-16T09:43:18.390Z,85.72
2023-10-16T09:44:18.491Z,86.69
2023-10-16T09:45:18.582Z,89.15
2023-10-16T09:46:18.815Z,87.41
2023-10-16T09:47:18.714Z,87.30
2023-10-16T09:48:18.812Z,87.71
2023-10-16T09:49:18.852Z,88.80
2023-10-16T09:50:18.976Z,88.14
2023-10-16T09:51:19.016Z,85.63
2023-10-16T09:52:19.142Z,88.80
2023-10-16T09:53:19.256Z,87.57
2023-10-16T09:54:19.293Z,87.26
2023-10-16T09:55:19.383Z,86.75
2023-10-16T09:56:19.489Z,87.10
2023-10-16T09:57:20.281Z,88.23
2023-10-16T09:58:19.619Z,87.47
2023-10-16T09:59:19.681Z,86.77
2023-10-16T10:00:19.824Z,85.50
2023-10-16T10:01:19.908Z,84.71
2023-10-16T10:02:19.953Z,83.26
2023-10-16T10:03:20.053Z,80.30
2023-10-16T10:04:20.184Z,81.85
2023-10-16T10:05:20.160Z,83.22
2023-10-16T10:06:20.240Z,83.36
2023-10-16T10:07:20.288Z,86.16
2023-10-16T10:08:20.396Z,87.29
2023-10-16T10:09:20.457Z,87.35
2023-10-16T10:10:20.583Z,86.67
2023-10-16T10:11:28.756Z,86.46
2023-10-16T10:12:20.717Z,85.28
2023-10-16T10:13:20.787Z,86.58
2023-10-16T10:14:20.856Z,88.88
2023-10-16T10:15:20.985Z,89.39
2023-10-16T10:16:21.109Z,88.84
2023-10-16T10:17:21.196Z,88.33
2023-10-16T10:18:21.199Z,88.53
2023-10-16T10:19:21.303Z,88.59
2023-10-16T10:20:21.317Z,88.45
2023-10-16T10:21:21.441Z,86.98
2023-10-16T10:22:21.506Z,86.26
2023-10-16T10:23:21.603Z,86.98
2023-10-16T10:24:21.705Z,86.05
2023-10-16T10:25:21.811Z,86.26
2023-10-16T10:26:21.858Z,86.53
2023-10-16T10:27:21.962Z,86.69
2023-10-16T10:28:22.046Z,85.36
2023-10-16T10:29:22.151Z,84.85
2023-10-16T10:30:22.229Z,84.95
2023-10-16T10:31:22.292Z,86.14
2023-10-16T10:32:22.339Z,87.06
2023-10-16T10:33:22.431Z,86.10
2023-10-16T10:34:22.525Z,85.28
2023-10-16T10:35:22.621Z,83.65
2023-10-16T10:36:22.666Z,84.06
2023-10-16T10:37:22.830Z,85.28
2023-10-16T10:38:22.864Z,85.49
2023-10-16T10:39:23.400Z,85.79
2023-10-16T10:40:23.507Z,83.24
2023-10-16T10:41:23.123Z,84.00
2023-10-16T10:42:23.189Z,84.65
2023-10-16T10:43:23.272Z,86.02
2023-10-16T10:44:23.386Z,86.43
2023-10-16T10:45:23.506Z,85.50
2023-10-16T10:46:23.800Z,85.16
2023-10-16T10:47:23.606Z,84.91
2023-10-16T10:48:23.697Z,83.34
2023-10-16T10:49:23.829Z,85.63
2023-10-16T10:50:23.862Z,84.20
2023-10-16T10:51:23.917Z,84.47
2023-10-16T10:52:24.026Z,84.06
2023-10-16T10:53:24.083Z,83.65
2023-10-16T10:54:24.203Z,83.89
2023-10-16T10:55:24.256Z,83.14
2023-10-16T10:56:24.318Z,83.14
2023-10-16T10:57:24.381Z,83.30
2023-10-16T10:58:24.462Z,82.32
2023-10-16T10:59:24.545Z,83.04
2023-10-16T11:00:24.650Z,82.89
2023-10-16T11:01:24.788Z,84.69
2023-10-16T11:02:24.800Z,81.16
2023-10-16T11:03:24.898Z,81.85
2023-10-16T11:04:25.078Z,82.93
2023-10-16T11:05:25.058Z,81.71
2023-10-16T11:06:25.111Z,82.12
2023-10-16T11:07:25.222Z,82.93
2023-10-16T11:08:25.245Z,84.83
2023-10-16T11:09:25.302Z,82.69
2023-10-16T11:10:25.413Z,82.59
2023-10-16T11:11:25.478Z,83.24
2023-10-16T11:12:25.662Z,83.89
2023-10-16T11:13:25.656Z,84.57
2023-10-16T11:14:25.977Z,83.79
2023-10-16T11:15:25.838Z,84.61
2023-10-16T11:16:25.972Z,84.09
2023-10-16T11:17:26.072Z,85.16
2023-10-16T11:18:26.187Z,85.30
2023-10-16T11:19:26.260Z,86.69
2023-10-16T11:20:26.238Z,85.94
2023-10-16T11:21:26.300Z,83.89
2023-10-16T11:22:26.382Z,85.02
2023-10-16T11:23:26.432Z,83.79
2023-10-16T11:24:26.861Z,84.91
2023-10-16T11:25:26.694Z,85.38
2023-10-16T11:26:26.698Z,84.74
2023-10-16T11:27:26.811Z,82.49
2023-10-16T11:28:26.869Z,83.67
2023-10-16T11:29:26.971Z,81.90
2023-10-16T11:30:27.063Z,81.29
2023-10-16T11:31:27.272Z,81.25
2023-10-16T11:32:27.735Z,80.19
2023-10-16T11:33:27.302Z,79.38
2023-10-16T11:34:27.418Z,79.38
2023-10-16T11:35:27.469Z,80.71
2023-10-16T11:36:29.184Z,83.23
2023-10-16T11:37:27.656Z,80.80
2023-10-16T11:38:27.740Z,80.64
2023-10-16T11:39:27.800Z,80.51
2023-10-16T11:40:27.887Z,81.60
2023-10-16T11:41:27.992Z,82.39
2023-10-16T11:42:28.096Z,82.41
2023-10-16T11:43:28.190Z,81.29
2023-10-16T11:44:28.476Z,82.00
2023-10-16T11:45:28.317Z,81.35
2023-10-16T11:46:28.481Z,80.91
2023-10-16T11:47:28.529Z,79.17
2023-10-16T11:48:28.627Z,79.17
2023-10-16T11:49:28.691Z,80.29
2023-10-16T11:50:28.754Z,80.16
2023-10-16T11:51:28.822Z,81.44
2023-10-16T11:52:28.969Z,79.27
2023-10-16T11:53:28.988Z,77.57
2023-10-16T11:54:29.265Z,78.89
2023-10-16T11:55:29.186Z,78.08
2023-10-16T11:56:29.261Z,78.28
2023-10-16T11:57:29.384Z,76.96
2023-10-16T11:58:29.442Z,77.91
2023-10-16T11:59:30.087Z,77.30
2023-10-16T12:00:29.582Z,78.46
2023-10-16T12:01:37.997Z,78.80
2023-10-16T12:03:29.857Z,81.70
2023-10-16T12:04:30.426Z,80.91
2023-10-16T12:05:29.983Z,79.90
2023-10-16T12:06:30.096Z,79.80
2023-10-16T12:07:30.185Z,80.47
2023-10-16T12:08:30.248Z,79.35
2023-10-16T12:09:30.303Z,80.13
2023-10-16T12:10:30.404Z,78.63
2023-10-16T12:11:30.459Z,78.22
2023-10-16T12:12:30.581Z,76.73
2023-10-16T12:13:30.688Z,79.14
2023-10-16T12:14:30.900Z,76.86
2023-10-16T12:15:30.819Z,76.65
2023-10-16T12:16:35.814Z,78.28
2023-10-16T12:17:30.993Z,77.47
2023-10-16T12:18:31.057Z,77.37
2023-10-16T12:19:31.178Z,76.93
2023-10-16T12:20:31.227Z,78.05
2023-10-16T12:21:31.282Z,78.46
2023-10-16T12:22:31.390Z,79.38
2023-10-16T12:23:31.476Z,78.32
2023-10-16T12:24:31.587Z,79.58
2023-10-16T12:25:31.648Z,80.09
2023-10-16T12:26:31.758Z,78.56
2023-10-16T12:27:31.833Z,79.82
2023-10-16T12:28:31.940Z,79.62
2023-10-16T12:29:32.014Z,78.94
2023-10-16T12:30:32.103Z,80.88
2023-10-16T12:31:32.197Z,80.41
2023-10-16T12:32:32.276Z,80.10
2023-10-16T12:33:32.370Z,79.49
2023-10-16T12:34:32.442Z,81.43
2023-10-16T12:35:32.529Z,80.91
2023-10-16T12:36:32.623Z,80.98
2023-10-16T12:37:32.690Z,81.02
2023-10-16T12:38:32.793Z,81.23
2023-10-16T12:39:32.881Z,82.10
2023-10-16T12:40:32.958Z,80.47
2023-10-16T12:41:33.100Z,80.27
2023-10-16T12:42:33.177Z,78.33
2023-10-16T12:43:33.207Z,78.80
2023-10-16T12:44:33.313Z,79.32
2023-10-16T12:45:33.436Z,77.58
2023-10-16T12:46:33.456Z,76.97
2023-10-16T12:47:43.912Z,78.87
2023-10-16T12:48:33.704Z,76.90
2023-10-16T12:49:33.676Z,76.76
2023-10-16T12:50:33.733Z,76.11
2023-10-16T12:51:33.872Z,73.54
2023-10-16T12:52:33.918Z,76.65
2023-10-16T12:53:33.962Z,74.52
2023-10-16T12:54:34.176Z,75.43
2023-10-16T12:55:34.148Z,75.50
2023-10-16T12:56:34.229Z,75.57
2023-10-16T12:57:34.303Z,72.99
2023-10-16T12:58:34.379Z,72.28
2023-10-16T12:59:34.482Z,73.80
2023-10-16T13:00:34.630Z,73.26
2023-10-16T13:01:34.653Z,72.58
2023-10-16T13:02:34.785Z,73.13
2023-10-16T13:03:35.365Z,73.94
2023-10-16T13:04:35.007Z,73.80
2023-10-16T13:05:35.011Z,72.89
2023-10-16T13:06:35.077Z,70.58
2023-10-16T13:07:42.336Z,71.43
2023-10-16T13:08:35.266Z,72.08
2023-10-16T13:09:35.307Z,72.21
2023-10-16T13:10:35.393Z,75.02
2023-10-16T13:11:35.460Z,75.70
2023-10-16T13:12:35.553Z,74.55
2023-10-16T13:13:35.592Z,74.72
2023-10-16T13:14:35.714Z,75.90
2023-10-16T13:15:35.796Z,69.74
2023-10-16T13:16:35.849Z,68.75
2023-10-16T13:17:35.980Z,74.24
2023-10-16T13:18:36.026Z,74.15
2023-10-16T13:19:36.074Z,73.60
2023-10-16T13:20:36.201Z,71.06
2023-10-16T13:21:36.461Z,69.06
2023-10-16T13:22:36.342Z,71.87
2023-10-16T13:23:46.154Z,68.82
2023-10-16T13:24:36.587Z,69.74
2023-10-16T13:25:36.626Z,71.50
2023-10-16T13:26:36.730Z,72.31
2023-10-16T13:27:36.819Z,72.75
2023-10-16T13:28:36.901Z,72.45
2023-10-16T13:29:36.956Z,72.65
2023-10-16T13:30:37.166Z,71.84
2023-10-16T13:31:37.140Z,72.65
2023-10-16T13:32:37.260Z,76.62
2023-10-16T13:33:37.321Z,76.15
2023-10-16T13:34:37.400Z,74.32
2023-10-16T13:35:37.421Z,74.62
2023-10-16T13:36:37.744Z,74.25
2023-10-16T13:37:37.607Z,76.49
2023-10-16T13:38:37.683Z,76.08
2023-10-16T13:39:37.797Z,75.78
2023-10-16T13:40:37.878Z,78.12
2023-10-16T13:41:38.361Z,77.26
2023-10-16T13:42:38.161Z,75.27
2023-10-16T13:43:38.163Z,75.30
2023-10-16T13:44:38.249Z,74.32
2023-10-16T13:45:38.332Z,77.17
2023-10-16T13:46:38.517Z,76.76
2023-10-16T13:47:38.520Z,75.34
2023-10-16T13:48:38.605Z,76.25
2023-10-16T13:49:38.772Z,76.35
2023-10-16T13:50:38.727Z,75.60
2023-10-16T13:51:38.933Z,74.99
2023-10-16T13:52:38.887Z,76.12
2023-10-16T13:53:38.972Z,75.81
2023-10-16T13:54:39.034Z,76.22
2023-10-16T13:55:39.105Z,75.40
2023-10-16T13:56:39.214Z,76.22
2023-10-16T13:57:39.282Z,76.46
2023-10-16T13:58:39.352Z,76.97
2023-10-16T13:59:39.435Z,77.27
2023-10-16T14:00:39.833Z,75.88
2023-10-16T14:01:39.670Z,76.39
2023-10-16T14:02:39.783Z,76.90
2023-10-16T14:03:39.857Z,77.92
2023-10-16T14:04:39.915Z,78.12
2023-10-16T14:05:40.075Z,77.37
2023-10-16T14:06:40.107Z,78.50
2023-10-16T14:07:40.128Z,79.41
2023-10-16T14:08:40.214Z,79.82
2023-10-16T14:09:40.332Z,78.09
2023-10-16T14:10:40.421Z,79.32
2023-10-16T14:11:40.531Z,77.17
2023-10-16T14:12:40.576Z,79.72
2023-10-16T14:13:40.641Z,78.80
2023-10-16T14:14:40.714Z,80.74
2023-10-16T14:15:40.853Z,78.50
2023-10-16T14:16:40.945Z,78.33
2023-10-16T14:17:40.988Z,78.64
2023-10-16T14:18:41.049Z,79.14
2023-10-16T14:19:41.133Z,77.72
2023-10-16T14:20:41.218Z,78.27
2023-10-16T14:21:41.348Z,78.98
2023-10-16T14:22:41.376Z,78.47
2023-10-16T14:23:41.450Z,79.90
2023-10-16T14:24:41.533Z,80.82
2023-10-16T14:25:41.592Z,79.90
2023-10-16T14:26:41.683Z,81.90
2023-10-16T14:27:41.773Z,81.09
2023-10-16T14:28:41.852Z,80.57
2023-10-16T14:29:41.954Z,78.84
2023-10-16T14:30:49.183Z,78.64
2023-10-16T14:31:42.233Z,78.67
2023-10-16T14:32:42.185Z,79.18
2023-10-16T14:33:42.321Z,79.90
2023-10-16T14:34:42.340Z,79.59
2023-10-16T14:35:42.404Z,80.10
2023-10-16T14:36:42.492Z,79.90
2023-10-16T14:37:42.643Z,80.30
2023-10-16T14:38:42.688Z,79.18
2023-10-16T14:39:42.740Z,79.18
2023-10-16T14:40:42.820Z,80.10
2023-10-16T14:41:42.901Z,80.00
2023-10-16T14:42:42.998Z,80.71
2023-10-16T14:43:43.073Z,79.80
2023-10-16T14:44:43.175Z,81.53
2023-10-16T14:45:43.285Z,79.52
2023-10-16T14:46:43.384Z,80.85
2023-10-16T14:47:43.503Z,80.55
2023-10-16T14:48:43.657Z,80.65
2023-10-16T14:49:43.652Z,79.52
2023-10-16T14:50:43.689Z,79.63
2023-10-16T14:51:43.800Z,79.93
2023-10-16T14:52:43.836Z,81.23
2023-10-16T14:53:43.919Z,79.69
2023-10-16T14:54:44.061Z,79.59
2023-10-16T14:55:44.133Z,80.00
2023-10-16T14:56:44.167Z,81.23
2023-10-16T14:58:00.251Z,81.84
2023-10-16T14:59:14.212Z,82.14
2023-10-16T14:59:44.418Z,82.75
2023-10-16T15:00:44.514Z,82.35
2023-10-16T15:01:44.740Z,82.55
2023-10-16T15:02:44.703Z,82.55
2023-10-16T15:03:44.881Z,83.06
2023-10-16T15:04:46.222Z,81.23
2023-10-16T15:05:44.907Z,80.20
2023-10-16T15:06:45.023Z,79.08
2023-10-16T15:07:45.036Z,80.20
2023-10-16T15:08:45.123Z,79.69
2023-10-16T15:09:45.246Z,79.80
2023-10-16T15:10:53.314Z,79.28
2023-10-16T15:11:45.375Z,80.20
2023-10-16T15:12:45.483Z,78.47
2023-10-16T15:13:45.544Z,79.18
2023-10-16T15:14:45.652Z,80.41
2023-10-16T15:15:45.798Z,81.80
2023-10-16T15:16:45.799Z,81.80
2023-10-16T15:17:45.981Z,78.77
2023-10-16T15:18:46.029Z,77.75
2023-10-16T15:19:46.051Z,77.79
2023-10-16T15:20:46.126Z,78.09
2023-10-16T15:21:46.235Z,77.89
2023-10-16T15:22:46.305Z,78.61
2023-10-16T15:23:46.404Z,79.32
2023-10-16T15:24:46.486Z,77.48
2023-10-16T15:25:46.575Z,77.69
2023-10-16T15:26:46.616Z,78.71
2023-10-16T15:27:46.711Z,78.30
2023-10-16T15:28:46.947Z,78.20
2023-10-16T15:29:46.886Z,79.32
2023-10-16T15:30:47.011Z,79.73
2023-10-16T15:31:47.194Z,79.73
2023-10-16T15:32:47.235Z,80.07
2023-10-16T15:33:47.244Z,80.58
2023-10-16T15:34:47.296Z,79.46
2023-10-16T15:35:47.367Z,80.28
2023-10-16T15:36:47.492Z,80.58
2023-10-16T15:37:47.520Z,79.19
2023-10-16T15:38:47.608Z,79.09
2023-10-16T15:39:47.706Z,79.57
2023-10-16T15:40:47.789Z,80.11
2023-10-16T15:41:47.864Z,80.32
2023-10-16T15:42:48.005Z,80.83
2023-10-16T15:43:52.477Z,80.52
2023-10-16T15:44:48.123Z,80.62
2023-10-16T15:45:48.273Z,80.21
2023-10-16T15:46:48.334Z,81.24
2023-10-16T15:47:48.374Z,81.44
2023-10-16T15:48:48.492Z,81.74
2023-10-16T15:49:48.532Z,81.58
2023-10-16T15:50:48.803Z,82.91
2023-10-16T15:51:48.782Z,83.73
2023-10-16T15:52:48.806Z,83.73
2023-10-16T15:53:48.889Z,85.06
2023-10-16T15:54:49.004Z,84.85
2023-10-16T15:55:49.078Z,85.10
2023-10-16T15:56:49.185Z,84.99
2023-10-16T15:57:49.248Z,85.50
2023-10-16T15:58:49.333Z,86.02
2023-10-16T15:59:49.384Z,85.91
2023-10-16T16:00:49.633Z,86.16
2023-10-16T16:01:49.720Z,86.26
2023-10-16T16:02:49.692Z,86.67
2023-10-16T16:03:49.802Z,86.98
2023-10-16T16:04:49.859Z,87.02
2023-10-16T16:05:49.898Z,87.32
2023-10-16T16:06:49.989Z,87.53
2023-10-16T16:07:50.055Z,87.63
2023-10-16T16:08:50.154Z,88.70
2023-10-16T16:09:50.239Z,89.11
2023-10-16T16:10:50.348Z,89.31
2023-10-16T16:11:50.358Z,89.66
2023-10-16T16:12:50.567Z,90.58
2023-10-16T16:13:50.564Z,91.30
2023-10-16T16:14:50.592Z,91.20
2023-10-16T16:15:50.680Z,91.24
2023-10-16T16:16:50.747Z,91.35
2023-10-16T16:17:50.815Z,91.24
2023-10-16T16:18:50.921Z,91.55
2023-10-16T16:19:50.963Z,91.44
2023-10-16T16:20:51.037Z,91.49
2023-10-16T16:21:51.143Z,92.31
2023-10-16T16:22:51.230Z,92.61
2023-10-16T16:23:51.311Z,92.82
2023-10-16T16:24:51.457Z,92.93
2023-10-16T16:25:51.459Z,92.97
2023-10-16T16:26:51.560Z,93.48
2023-10-16T16:27:51.619Z,93.79
2023-10-16T16:28:51.792Z,93.79
2023-10-16T16:29:51.785Z,93.73
2023-10-16T16:30:51.824Z,94.34
2023-10-16T16:31:51.909Z,94.96
2023-10-16T16:32:52.006Z,95.27
2023-10-16T16:33:52.037Z,95.72
2023-10-16T16:34:52.150Z,96.14
2023-10-16T16:35:52.282Z,96.55
2023-10-16T16:36:52.308Z,96.50
2023-10-16T16:37:52.364Z,96.55
2023-10-16T16:38:52.508Z,96.55
2023-10-16T16:39:52.555Z,96.34
2023-10-16T16:40:52.640Z,96.03
2023-10-16T16:41:52.732Z,96.14
2023-10-16T16:42:52.787Z,96.65
2023-10-16T16:43:52.864Z,96.23
2023-10-16T16:44:53.039Z,95.87
2023-10-16T16:45:53.063Z,96.18
2023-10-16T16:46:53.107Z,96.18
2023-10-16T16:47:53.227Z,96.39
2023-10-16T16:48:53.284Z,96.90
2023-10-16T16:49:53.336Z,97.20
2023-10-16T16:50:53.386Z,97.20
2023-10-16T16:51:53.470Z,97.45
2023-10-16T16:52:53.550Z,97.56
2023-10-16T16:53:53.654Z,97.77
2023-10-16T16:54:53.697Z,97.97
2023-10-16T16:55:53.794Z,97.97
2023-10-16T16:56:53.857Z,97.97
2023-10-16T16:57:53.925Z,98.28
